sensor_id;sensor_type;location;lat;lon;timestamp;P1;durP1;ratioP1;P2;durP2;ratioP2
84431;SDS011;74658;51.736;7.038;2024-01-07T00:02:02;29.50;;;10.60;;
84431;SDS011;74658;51.736;7.038;2024-01-07T00:07:03;30.60;;;11.40;;
84431;SDS011;74658;51.736;7.038;2024-01-07T00:12:04;28.30;;;10.20;;
84431;SDS011;74658;51.736;7.038;2024-01-07T00:17:04;28.40;;;10.90;;
84431;SDS011;74658;51.736;7.038;2024-01-07T00:22:05;29.60;;;10.70;;
84431;SDS011;74658;51.736;7.038;2024-01-07T00:27:05;32.80;;;12.10;;
84431;SDS011;74658;51.736;7.038;2024-01-07T00:32:06;31.80;;;11.60;;
84431;SDS011;74658;51.736;7.038;2024-01-07T00:37:07;33.10;;;11.70;;
84431;SDS011;74658;51.736;7.038;2024-01-07T00:42:07;37.50;;;14.00;;
84431;SDS011;74658;51.736;7.038;2024-01-07T00:47:08;41.40;;;14.10;;
84431;SDS011;74658;51.736;7.038;2024-01-07T00:52:08;37.30;;;13.70;;
84431;SDS011;74658;51.736;7.038;2024-01-07T00:57:10;39.30;;;13.80;;
84431;SDS011;74658;51.736;7.038;2024-01-07T01:02:09;37.00;;;13.30;;
84431;SDS011;74658;51.736;7.038;2024-01-07T01:07:10;26.30;;;9.50;;
84431;SDS011;74658;51.736;7.038;2024-01-07T01:12:11;38.80;;;14.60;;
84431;SDS011;74658;51.736;7.038;2024-01-07T01:17:11;36.30;;;12.80;;
84431;SDS011;74658;51.736;7.038;2024-01-07T01:22:12;32.90;;;11.50;;
84431;SDS011;74658;51.736;7.038;2024-01-07T01:27:13;42.90;;;15.20;;
84431;SDS011;74658;51.736;7.038;2024-01-07T01:32:13;41.30;;;14.50;;
84431;SDS011;74658;51.736;7.038;2024-01-07T01:37:14;39.50;;;14.20;;
84431;SDS011;74658;51.736;7.038;2024-01-07T01:42:15;40.70;;;15.00;;
84431;SDS011;74658;51.736;7.038;2024-01-07T01:47:15;42.40;;;14.90;;
84431;SDS011;74658;51.736;7.038;2024-01-07T01:52:16;33.10;;;13.20;;
84431;SDS011;74658;51.736;7.038;2024-01-07T01:57:17;31.20;;;11.70;;
84431;SDS011;74658;51.736;7.038;2024-01-07T02:02:17;37.40;;;13.80;;
84431;SDS011;74658;51.736;7.038;2024-01-07T02:07:18;33.20;;;12.50;;
84431;SDS011;74658;51.736;7.038;2024-01-07T02:12:18;32.00;;;12.30;;
84431;SDS011;74658;51.736;7.038;2024-01-07T02:17:19;31.90;;;12.70;;
84431;SDS011;74658;51.736;7.038;2024-01-07T02:22:20;31.40;;;12.40;;
84431;SDS011;74658;51.736;7.038;2024-01-07T02:27:20;32.80;;;13.50;;
84431;SDS011;74658;51.736;7.038;2024-01-07T02:32:21;31.10;;;13.00;;
84431;SDS011;74658;51.736;7.038;2024-01-07T02:37:21;35.60;;;13.50;;
84431;SDS011;74658;51.736;7.038;2024-01-07T02:42:22;26.40;;;10.70;;
84431;SDS011;74658;51.736;7.038;2024-01-07T02:47:23;30.90;;;12.10;;
84431;SDS011;74658;51.736;7.038;2024-01-07T02:52:23;30.30;;;11.40;;
84431;SDS011;74658;51.736;7.038;2024-01-07T02:57:24;26.60;;;11.50;;
84431;SDS011;74658;51.736;7.038;2024-01-07T03:02:24;24.80;;;10.80;;
84431;SDS011;74658;51.736;7.038;2024-01-07T03:07:25;27.40;;;11.70;;
84431;SDS011;74658;51.736;7.038;2024-01-07T03:12:26;27.80;;;11.30;;
84431;SDS011;74658;51.736;7.038;2024-01-07T03:17:26;27.70;;;11.90;;
84431;SDS011;74658;51.736;7.038;2024-01-07T03:22:27;26.70;;;11.10;;
84431;SDS011;74658;51.736;7.038;2024-01-07T03:27:27;28.40;;;11.90;;
84431;SDS011;74658;51.736;7.038;2024-01-07T03:32:28;30.60;;;12.30;;
84431;SDS011;74658;51.736;7.038;2024-01-07T03:37:29;27.90;;;12.10;;
84431;SDS011;74658;51.736;7.038;2024-01-07T03:42:29;32.70;;;13.60;;
84431;SDS011;74658;51.736;7.038;2024-01-07T03:47:30;30.40;;;12.80;;
84431;SDS011;74658;51.736;7.038;2024-01-07T03:52:31;29.50;;;11.70;;
84431;SDS011;74658;51.736;7.038;2024-01-07T03:57:31;27.30;;;11.40;;
84431;SDS011;74658;51.736;7.038;2024-01-07T04:02:32;27.50;;;11.50;;
84431;SDS011;74658;51.736;7.038;2024-01-07T04:07:32;27.80;;;11.60;;
84431;SDS011;74658;51.736;7.038;2024-01-07T04:12:33;24.00;;;10.20;;
84431;SDS011;74658;51.736;7.038;2024-01-07T04:17:34;26.30;;;10.90;;
84431;SDS011;74658;51.736;7.038;2024-01-07T04:22:34;19.90;;;8.90;;
84431;SDS011;74658;51.736;7.038;2024-01-07T04:27:35;26.80;;;11.00;;
84431;SDS011;74658;51.736;7.038;2024-01-07T04:32:35;27.60;;;11.50;;
84431;SDS011;74658;51.736;7.038;2024-01-07T04:37:37;21.70;;;9.60;;
84431;SDS011;74658;51.736;7.038;2024-01-07T04:42:37;24.80;;;10.40;;
84431;SDS011;74658;51.736;7.038;2024-01-07T04:47:37;24.60;;;9.50;;
84431;SDS011;74658;51.736;7.038;2024-01-07T04:52:38;31.40;;;12.50;;
84431;SDS011;74658;51.736;7.038;2024-01-07T04:57:39;33.70;;;12.70;;
84431;SDS011;74658;51.736;7.038;2024-01-07T05:02:39;31.00;;;11.60;;
84431;SDS011;74658;51.736;7.038;2024-01-07T05:07:40;32.90;;;13.00;;
84431;SDS011;74658;51.736;7.038;2024-01-07T05:12:40;30.60;;;12.40;;
84431;SDS011;74658;51.736;7.038;2024-01-07T05:17:41;29.40;;;11.60;;
84431;SDS011;74658;51.736;7.038;2024-01-07T05:22:42;33.90;;;14.20;;
84431;SDS011;74658;51.736;7.038;2024-01-07T05:27:42;36.30;;;15.20;;
84431;SDS011;74658;51.736;7.038;2024-01-07T05:32:43;34.70;;;13.60;;
84431;SDS011;74658;51.736;7.038;2024-01-07T05:37:43;27.70;;;11.50;;
84431;SDS011;74658;51.736;7.038;2024-01-07T05:42:44;34.00;;;13.30;;
84431;SDS011;74658;51.736;7.038;2024-01-07T05:47:45;33.50;;;13.10;;
84431;SDS011;74658;51.736;7.038;2024-01-07T05:52:45;28.90;;;11.50;;
84431;SDS011;74658;51.736;7.038;2024-01-07T05:57:46;34.40;;;13.30;;
84431;SDS011;74658;51.736;7.038;2024-01-07T06:02:46;29.70;;;12.00;;
84431;SDS011;74658;51.736;7.038;2024-01-07T06:07:47;27.20;;;10.80;;
84431;SDS011;74658;51.736;7.038;2024-01-07T06:12:48;26.90;;;11.40;;
84431;SDS011;74658;51.736;7.038;2024-01-07T06:17:48;29.00;;;12.50;;
84431;SDS011;74658;51.736;7.038;2024-01-07T06:22:49;27.80;;;11.70;;
84431;SDS011;74658;51.736;7.038;2024-01-07T06:27:50;28.30;;;12.00;;
84431;SDS011;74658;51.736;7.038;2024-01-07T06:32:50;28.60;;;12.40;;
84431;SDS011;74658;51.736;7.038;2024-01-07T06:37:51;23.60;;;10.30;;
84431;SDS011;74658;51.736;7.038;2024-01-07T06:42:51;28.40;;;11.30;;
84431;SDS011;74658;51.736;7.038;2024-01-07T06:47:52;31.60;;;13.20;;
84431;SDS011;74658;51.736;7.038;2024-01-07T06:52:52;26.60;;;11.80;;
84431;SDS011;74658;51.736;7.038;2024-01-07T06:57:53;26.10;;;11.30;;
84431;SDS011;74658;51.736;7.038;2024-01-07T07:02:54;29.60;;;11.90;;
84431;SDS011;74658;51.736;7.038;2024-01-07T07:07:54;25.70;;;10.90;;
84431;SDS011;74658;51.736;7.038;2024-01-07T07:12:55;25.60;;;11.30;;
84431;SDS011;74658;51.736;7.038;2024-01-07T07:17:56;25.40;;;11.50;;
84431;SDS011;74658;51.736;7.038;2024-01-07T07:22:56;24.00;;;10.30;;
84431;SDS011;74658;51.736;7.038;2024-01-07T07:27:57;36.50;;;14.20;;
84431;SDS011;74658;51.736;7.038;2024-01-07T07:32:58;23.80;;;9.90;;
84431;SDS011;74658;51.736;7.038;2024-01-07T07:37:58;38.70;;;15.20;;
84431;SDS011;74658;51.736;7.038;2024-01-07T07:42:59;28.60;;;11.80;;
84431;SDS011;74658;51.736;7.038;2024-01-07T07:47:59;31.30;;;13.20;;
84431;SDS011;74658;51.736;7.038;2024-01-07T07:53:00;28.70;;;11.20;;
84431;SDS011;74658;51.736;7.038;2024-01-07T07:58:01;27.10;;;11.30;;
84431;SDS011;74658;51.736;7.038;2024-01-07T08:03:02;20.30;;;9.10;;
84431;SDS011;74658;51.736;7.038;2024-01-07T08:08:12;29.00;;;12.00;;
84431;SDS011;74658;51.736;7.038;2024-01-07T08:13:03;24.90;;;10.60;;
84431;SDS011;74658;51.736;7.038;2024-01-07T08:18:03;23.60;;;10.20;;
84431;SDS011;74658;51.736;7.038;2024-01-07T08:23:04;21.90;;;9.50;;
84431;SDS011;74658;51.736;7.038;2024-01-07T08:28:05;21.10;;;10.30;;
84431;SDS011;74658;51.736;7.038;2024-01-07T08:33:05;26.70;;;11.10;;
84431;SDS011;74658;51.736;7.038;2024-01-07T08:38:06;18.90;;;8.30;;
84431;SDS011;74658;51.736;7.038;2024-01-07T08:43:06;21.50;;;9.40;;
84431;SDS011;74658;51.736;7.038;2024-01-07T08:48:07;19.30;;;8.60;;
84431;SDS011;74658;51.736;7.038;2024-01-07T08:53:07;19.20;;;7.90;;
84431;SDS011;74658;51.736;7.038;2024-01-07T08:58:08;12.70;;;6.10;;
84431;SDS011;74658;51.736;7.038;2024-01-07T09:03:09;15.10;;;7.30;;
84431;SDS011;74658;51.736;7.038;2024-01-07T09:08:09;16.30;;;7.10;;
84431;SDS011;74658;51.736;7.038;2024-01-07T09:13:10;16.60;;;7.30;;
84431;SDS011;74658;51.736;7.038;2024-01-07T09:18:10;15.10;;;6.70;;
84431;SDS011;74658;51.736;7.038;2024-01-07T09:23:12;14.50;;;7.10;;
84431;SDS011;74658;51.736;7.038;2024-01-07T09:28:12;15.70;;;7.20;;
84431;SDS011;74658;51.736;7.038;2024-01-07T09:33:12;18.00;;;7.90;;
84431;SDS011;74658;51.736;7.038;2024-01-07T09:38:13;16.90;;;7.10;;
84431;SDS011;74658;51.736;7.038;2024-01-07T09:43:13;23.80;;;9.50;;
84431;SDS011;74658;51.736;7.038;2024-01-07T09:48:14;14.30;;;6.00;;
84431;SDS011;74658;51.736;7.038;2024-01-07T09:53:15;18.20;;;7.60;;
84431;SDS011;74658;51.736;7.038;2024-01-07T09:58:15;18.30;;;7.60;;
84431;SDS011;74658;51.736;7.038;2024-01-07T10:03:16;18.40;;;8.30;;
84431;SDS011;74658;51.736;7.038;2024-01-07T10:08:16;16.10;;;7.40;;
84431;SDS011;74658;51.736;7.038;2024-01-07T10:13:17;15.90;;;7.30;;
84431;SDS011;74658;51.736;7.038;2024-01-07T10:18:18;13.00;;;5.20;;
84431;SDS011;74658;51.736;7.038;2024-01-07T10:23:18;14.00;;;6.20;;
84431;SDS011;74658;51.736;7.038;2024-01-07T10:28:19;10.90;;;5.50;;
84431;SDS011;74658;51.736;7.038;2024-01-07T10:33:19;11.90;;;5.30;;
84431;SDS011;74658;51.736;7.038;2024-01-07T10:38:20;9.90;;;4.90;;
84431;SDS011;74658;51.736;7.038;2024-01-07T10:43:21;10.10;;;4.60;;
84431;SDS011;74658;51.736;7.038;2024-01-07T10:48:21;12.60;;;6.20;;
84431;SDS011;74658;51.736;7.038;2024-01-07T10:53:22;9.90;;;4.30;;
84431;SDS011;74658;51.736;7.038;2024-01-07T10:58:24;9.40;;;4.30;;
84431;SDS011;74658;51.736;7.038;2024-01-07T11:03:24;10.10;;;5.20;;
84431;SDS011;74658;51.736;7.038;2024-01-07T11:08:25;8.80;;;4.70;;
84431;SDS011;74658;51.736;7.038;2024-01-07T11:13:32;8.90;;;4.60;;
84431;SDS011;74658;51.736;7.038;2024-01-07T11:18:26;10.90;;;4.60;;
84431;SDS011;74658;51.736;7.038;2024-01-07T11:23:26;10.30;;;4.10;;
84431;SDS011;74658;51.736;7.038;2024-01-07T11:28:42;10.90;;;5.90;;
84431;SDS011;74658;51.736;7.038;2024-01-07T11:33:28;11.40;;;4.80;;
84431;SDS011;74658;51.736;7.038;2024-01-07T11:38:27;6.60;;;3.10;;
84431;SDS011;74658;51.736;7.038;2024-01-07T11:43:28;12.50;;;6.00;;
84431;SDS011;74658;51.736;7.038;2024-01-07T11:48:29;8.70;;;4.70;;
84431;SDS011;74658;51.736;7.038;2024-01-07T11:53:29;11.10;;;5.90;;
84431;SDS011;74658;51.736;7.038;2024-01-07T11:58:30;9.60;;;4.80;;
84431;SDS011;74658;51.736;7.038;2024-01-07T12:03:31;11.20;;;5.00;;
84431;SDS011;74658;51.736;7.038;2024-01-07T12:08:31;13.70;;;6.70;;
84431;SDS011;74658;51.736;7.038;2024-01-07T12:13:32;6.80;;;3.60;;
84431;SDS011;74658;51.736;7.038;2024-01-07T12:18:32;7.30;;;3.70;;
84431;SDS011;74658;51.736;7.038;2024-01-07T12:23:34;8.90;;;4.60;;
84431;SDS011;74658;51.736;7.038;2024-01-07T12:28:33;9.10;;;4.10;;
84431;SDS011;74658;51.736;7.038;2024-01-07T12:33:36;8.00;;;3.50;;
84431;SDS011;74658;51.736;7.038;2024-01-07T12:38:36;7.00;;;3.00;;
84431;SDS011;74658;51.736;7.038;2024-01-07T12:43:36;20.20;;;11.00;;
84431;SDS011;74658;51.736;7.038;2024-01-07T12:48:36;11.00;;;5.70;;
84431;SDS011;74658;51.736;7.038;2024-01-07T12:53:37;12.40;;;7.20;;
84431;SDS011;74658;51.736;7.038;2024-01-07T12:58:37;8.00;;;4.20;;
84431;SDS011;74658;51.736;7.038;2024-01-07T13:03:38;9.20;;;5.60;;
84431;SDS011;74658;51.736;7.038;2024-01-07T13:08:39;6.40;;;2.50;;
84431;SDS011;74658;51.736;7.038;2024-01-07T13:13:39;9.80;;;5.80;;
84431;SDS011;74658;51.736;7.038;2024-01-07T13:18:40;7.00;;;3.40;;
84431;SDS011;74658;51.736;7.038;2024-01-07T13:23:42;8.00;;;3.70;;
84431;SDS011;74658;51.736;7.038;2024-01-07T13:28:41;7.40;;;3.50;;
84431;SDS011;74658;51.736;7.038;2024-01-07T13:33:42;6.40;;;2.90;;
84431;SDS011;74658;51.736;7.038;2024-01-07T13:38:42;8.60;;;4.40;;
84431;SDS011;74658;51.736;7.038;2024-01-07T13:43:43;8.00;;;3.50;;
84431;SDS011;74658;51.736;7.038;2024-01-07T13:48:43;9.10;;;5.60;;
84431;SDS011;74658;51.736;7.038;2024-01-07T13:53:44;9.60;;;3.90;;
84431;SDS011;74658;51.736;7.038;2024-01-07T13:58:45;7.70;;;4.00;;
84431;SDS011;74658;51.736;7.038;2024-01-07T14:03:45;6.70;;;2.70;;
84431;SDS011;74658;51.736;7.038;2024-01-07T14:08:46;7.50;;;3.40;;
84431;SDS011;74658;51.736;7.038;2024-01-07T14:13:46;6.30;;;2.80;;
84431;SDS011;74658;51.736;7.038;2024-01-07T14:18:47;9.60;;;4.70;;
84431;SDS011;74658;51.736;7.038;2024-01-07T14:23:48;6.50;;;3.00;;
84431;SDS011;74658;51.736;7.038;2024-01-07T14:28:48;5.80;;;2.20;;
84431;SDS011;74658;51.736;7.038;2024-01-07T14:33:49;5.00;;;2.30;;
84431;SDS011;74658;51.736;7.038;2024-01-07T14:38:49;7.40;;;3.50;;
84431;SDS011;74658;51.736;7.038;2024-01-07T14:43:50;9.80;;;4.10;;
84431;SDS011;74658;51.736;7.038;2024-01-07T14:48:51;8.90;;;3.80;;
84431;SDS011;74658;51.736;7.038;2024-01-07T14:53:51;6.70;;;2.90;;
84431;SDS011;74658;51.736;7.038;2024-01-07T14:58:52;6.00;;;2.90;;
84431;SDS011;74658;51.736;7.038;2024-01-07T15:03:53;11.20;;;4.20;;
84431;SDS011;74658;51.736;7.038;2024-01-07T15:08:53;8.10;;;3.60;;
84431;SDS011;74658;51.736;7.038;2024-01-07T15:13:54;9.00;;;3.60;;
84431;SDS011;74658;51.736;7.038;2024-01-07T15:18:56;6.70;;;2.70;;
84431;SDS011;74658;51.736;7.038;2024-01-07T15:23:56;8.40;;;3.70;;
84431;SDS011;74658;51.736;7.038;2024-01-07T15:28:57;7.50;;;3.80;;
84431;SDS011;74658;51.736;7.038;2024-01-07T15:33:57;8.00;;;3.60;;
84431;SDS011;74658;51.736;7.038;2024-01-07T15:38:58;6.00;;;2.70;;
84431;SDS011;74658;51.736;7.038;2024-01-07T15:43:59;9.00;;;3.90;;
84431;SDS011;74658;51.736;7.038;2024-01-07T15:48:59;8.50;;;4.10;;
84431;SDS011;74658;51.736;7.038;2024-01-07T15:54:01;12.30;;;4.80;;
84431;SDS011;74658;51.736;7.038;2024-01-07T15:59:00;16.10;;;7.40;;
84431;SDS011;74658;51.736;7.038;2024-01-07T16:04:01;15.20;;;6.50;;
84431;SDS011;74658;51.736;7.038;2024-01-07T16:09:02;11.00;;;4.40;;
84431;SDS011;74658;51.736;7.038;2024-01-07T16:14:02;11.80;;;4.50;;
84431;SDS011;74658;51.736;7.038;2024-01-07T16:19:03;11.10;;;5.50;;
84431;SDS011;74658;51.736;7.038;2024-01-07T16:24:05;14.70;;;6.50;;
84431;SDS011;74658;51.736;7.038;2024-01-07T16:29:04;13.20;;;5.60;;
84431;SDS011;74658;51.736;7.038;2024-01-07T16:34:05;13.80;;;5.70;;
84431;SDS011;74658;51.736;7.038;2024-01-07T16:39:05;11.50;;;5.10;;
84431;SDS011;74658;51.736;7.038;2024-01-07T16:44:06;11.90;;;4.60;;
84431;SDS011;74658;51.736;7.038;2024-01-07T16:49:06;11.40;;;4.90;;
84431;SDS011;74658;51.736;7.038;2024-01-07T16:54:07;9.80;;;4.00;;
84431;SDS011;74658;51.736;7.038;2024-01-07T16:59:08;12.10;;;5.20;;
84431;SDS011;74658;51.736;7.038;2024-01-07T17:04:08;11.20;;;5.20;;
84431;SDS011;74658;51.736;7.038;2024-01-07T17:09:09;33.70;;;9.80;;
84431;SDS011;74658;51.736;7.038;2024-01-07T17:14:09;29.30;;;9.00;;
84431;SDS011;74658;51.736;7.038;2024-01-07T17:19:10;30.10;;;9.40;;
84431;SDS011;74658;51.736;7.038;2024-01-07T17:24:11;17.30;;;6.60;;
84431;SDS011;74658;51.736;7.038;2024-01-07T17:29:11;16.30;;;7.50;;
84431;SDS011;74658;51.736;7.038;2024-01-07T17:34:12;16.90;;;6.70;;
84431;SDS011;74658;51.736;7.038;2024-01-07T17:39:13;19.80;;;8.40;;
84431;SDS011;74658;51.736;7.038;2024-01-07T17:44:13;20.10;;;8.00;;
84431;SDS011;74658;51.736;7.038;2024-01-07T17:49:14;22.20;;;9.40;;
84431;SDS011;74658;51.736;7.038;2024-01-07T17:54:14;25.10;;;9.80;;
84431;SDS011;74658;51.736;7.038;2024-01-07T17:59:15;36.20;;;11.20;;
84431;SDS011;74658;51.736;7.038;2024-01-07T18:04:15;23.70;;;8.50;;
84431;SDS011;74658;51.736;7.038;2024-01-07T18:09:16;32.50;;;10.00;;
84431;SDS011;74658;51.736;7.038;2024-01-07T18:14:17;15.90;;;6.30;;
84431;SDS011;74658;51.736;7.038;2024-01-07T18:19:17;19.80;;;7.10;;
84431;SDS011;74658;51.736;7.038;2024-01-07T18:24:18;63.60;;;18.30;;
84431;SDS011;74658;51.736;7.038;2024-01-07T18:29:18;16.50;;;6.30;;
84431;SDS011;74658;51.736;7.038;2024-01-07T18:34:19;24.40;;;8.60;;
84431;SDS011;74658;51.736;7.038;2024-01-07T18:39:20;21.20;;;8.40;;
84431;SDS011;74658;51.736;7.038;2024-01-07T18:44:21;11.00;;;5.30;;
84431;SDS011;74658;51.736;7.038;2024-01-07T18:49:21;17.10;;;7.10;;
84431;SDS011;74658;51.736;7.038;2024-01-07T18:54:22;12.70;;;6.00;;
84431;SDS011;74658;51.736;7.038;2024-01-07T18:59:22;15.90;;;6.80;;
84431;SDS011;74658;51.736;7.038;2024-01-07T19:04:23;12.80;;;5.40;;
84431;SDS011;74658;51.736;7.038;2024-01-07T19:09:24;14.80;;;6.40;;
84431;SDS011;74658;51.736;7.038;2024-01-07T19:14:24;15.20;;;7.40;;
84431;SDS011;74658;51.736;7.038;2024-01-07T19:19:25;14.20;;;6.20;;
84431;SDS011;74658;51.736;7.038;2024-01-07T19:24:27;15.20;;;5.70;;
84431;SDS011;74658;51.736;7.038;2024-01-07T19:29:26;15.90;;;6.10;;
84431;SDS011;74658;51.736;7.038;2024-01-07T19:34:26;13.90;;;5.70;;
84431;SDS011;74658;51.736;7.038;2024-01-07T19:39:27;13.50;;;5.90;;
84431;SDS011;74658;51.736;7.038;2024-01-07T19:44:28;11.60;;;5.50;;
84431;SDS011;74658;51.736;7.038;2024-01-07T19:49:28;14.40;;;6.60;;
84431;SDS011;74658;51.736;7.038;2024-01-07T19:54:29;13.20;;;6.30;;
84431;SDS011;74658;51.736;7.038;2024-01-07T19:59:29;15.90;;;7.00;;
84431;SDS011;74658;51.736;7.038;2024-01-07T20:04:30;11.60;;;4.80;;
84431;SDS011;74658;51.736;7.038;2024-01-07T20:09:31;13.60;;;6.20;;
84431;SDS011;74658;51.736;7.038;2024-01-07T20:14:31;12.20;;;5.50;;
84431;SDS011;74658;51.736;7.038;2024-01-07T20:19:32;16.70;;;6.30;;
84431;SDS011;74658;51.736;7.038;2024-01-07T20:24:33;13.60;;;5.90;;
84431;SDS011;74658;51.736;7.038;2024-01-07T20:29:34;13.20;;;6.00;;
84431;SDS011;74658;51.736;7.038;2024-01-07T20:34:34;15.70;;;6.50;;
84431;SDS011;74658;51.736;7.038;2024-01-07T20:39:35;12.50;;;5.30;;
84431;SDS011;74658;51.736;7.038;2024-01-07T20:44:35;15.50;;;5.90;;
84431;SDS011;74658;51.736;7.038;2024-01-07T20:49:36;14.50;;;6.20;;
84431;SDS011;74658;51.736;7.038;2024-01-07T20:54:37;13.50;;;5.10;;
84431;SDS011;74658;51.736;7.038;2024-01-07T20:59:37;12.00;;;5.50;;
84431;SDS011;74658;51.736;7.038;2024-01-07T21:04:41;16.40;;;7.00;;
84431;SDS011;74658;51.736;7.038;2024-01-07T21:09:38;14.60;;;6.50;;
84431;SDS011;74658;51.736;7.038;2024-01-07T21:14:39;10.30;;;4.70;;
84431;SDS011;74658;51.736;7.038;2024-01-07T21:19:39;11.50;;;5.50;;
84431;SDS011;74658;51.736;7.038;2024-01-07T21:24:40;14.90;;;6.10;;
84431;SDS011;74658;51.736;7.038;2024-01-07T21:29:41;13.20;;;6.20;;
84431;SDS011;74658;51.736;7.038;2024-01-07T21:34:41;13.20;;;5.80;;
84431;SDS011;74658;51.736;7.038;2024-01-07T21:39:42;13.00;;;5.10;;
84431;SDS011;74658;51.736;7.038;2024-01-07T21:44:42;9.90;;;4.60;;
84431;SDS011;74658;51.736;7.038;2024-01-07T21:49:44;12.90;;;5.90;;
84431;SDS011;74658;51.736;7.038;2024-01-07T21:54:44;10.60;;;4.90;;
84431;SDS011;74658;51.736;7.038;2024-01-07T21:59:44;9.50;;;4.60;;
84431;SDS011;74658;51.736;7.038;2024-01-07T22:04:45;10.60;;;3.80;;
84431;SDS011;74658;51.736;7.038;2024-01-07T22:09:46;13.60;;;5.30;;
84431;SDS011;74658;51.736;7.038;2024-01-07T22:14:46;10.90;;;5.10;;
84431;SDS011;74658;51.736;7.038;2024-01-07T22:19:47;11.60;;;5.20;;
84431;SDS011;74658;51.736;7.038;2024-01-07T22:24:47;11.80;;;5.00;;
84431;SDS011;74658;51.736;7.038;2024-01-07T22:29:48;13.60;;;6.30;;
84431;SDS011;74658;51.736;7.038;2024-01-07T22:34:49;14.50;;;6.10;;
84431;SDS011;74658;51.736;7.038;2024-01-07T22:39:49;13.80;;;4.80;;
84431;SDS011;74658;51.736;7.038;2024-01-07T22:44:50;16.30;;;6.70;;
84431;SDS011;74658;51.736;7.038;2024-01-07T22:49:51;12.30;;;5.40;;
84431;SDS011;74658;51.736;7.038;2024-01-07T22:54:51;13.10;;;5.80;;
84431;SDS011;74658;51.736;7.038;2024-01-07T22:59:52;13.00;;;5.90;;
84431;SDS011;74658;51.736;7.038;2024-01-07T23:04:52;14.70;;;6.30;;
84431;SDS011;74658;51.736;7.038;2024-01-07T23:09:53;12.10;;;5.10;;
84431;SDS011;74658;51.736;7.038;2024-01-07T23:14:54;12.50;;;5.00;;
84431;SDS011;74658;51.736;7.038;2024-01-07T23:19:54;13.80;;;5.00;;
84431;SDS011;74658;51.736;7.038;2024-01-07T23:24:55;19.00;;;6.80;;
84431;SDS011;74658;51.736;7.038;2024-01-07T23:29:56;15.00;;;6.40;;
84431;SDS011;74658;51.736;7.038;2024-01-07T23:34:56;14.70;;;6.00;;
84431;SDS011;74658;51.736;7.038;2024-01-07T23:39:57;14.00;;;6.30;;
84431;SDS011;74658;51.736;7.038;2024-01-07T23:44:57;14.30;;;5.80;;
84431;SDS011;74658;51.736;7.038;2024-01-07T23:49:58;14.50;;;6.00;;
84431;SDS011;74658;51.736;7.038;2024-01-07T23:54:59;13.80;;;5.90;;
84431;SDS011;74658;51.736;7.038;2024-01-07T23:59:59;13.70;;;5.50;;
